sensor_id;sensor_type;location;lat;lon;timestamp;temperature;humidity
6988;DHT22;3534;49.960;8.018;2022-11-20T00:00:39;7.50;99.90
6988;DHT22;3534;49.960;8.018;2022-11-20T00:03:06;7.60;99.90
6988;DHT22;3534;49.960;8.018;2022-11-20T00:05:33;7.50;99.90
6988;DHT22;3534;49.960;8.018;2022-11-20T00:07:59;7.60;99.90
6988;DHT22;3534;49.960;8.018;2022-11-20T00:10:26;7.50;99.90
6988;DHT22;3534;49.960;8.018;2022-11-20T00:12:54;7.50;99.90
6988;DHT22;3534;49.960;8.018;2022-11-20T00:15:21;7.50;99.90
6988;DHT22;3534;49.960;8.018;2022-11-20T00:17:48;7.50;99.90
6988;DHT22;3534;49.960;8.018;2022-11-20T00:20:14;7.40;99.90
6988;DHT22;3534;49.960;8.018;2022-11-20T00:22:41;7.40;99.90
6988;DHT22;3534;49.960;8.018;2022-11-20T00:25:08;7.40;99.90
6988;DHT22;3534;49.960;8.018;2022-11-20T00:27:35;7.40;99.90
6988;DHT22;3534;49.960;8.018;2022-11-20T00:30:03;7.50;99.90
6988;DHT22;3534;49.960;8.018;2022-11-20T00:32:30;7.40;99.90
6988;DHT22;3534;49.960;8.018;2022-11-20T00:34:57;7.50;99.90
6988;DHT22;3534;49.960;8.018;2022-11-20T00:37:24;7.50;99.90
6988;DHT22;3534;49.960;8.018;2022-11-20T00:39:50;7.40;99.90
6988;DHT22;3534;49.960;8.018;2022-11-20T00:42:17;7.40;99.90
6988;DHT22;3534;49.960;8.018;2022-11-20T00:44:44;7.50;99.90
6988;DHT22;3534;49.960;8.018;2022-11-20T00:47:12;7.40;99.90
6988;DHT22;3534;49.960;8.018;2022-11-20T00:49:39;7.40;99.90
6988;DHT22;3534;49.960;8.018;2022-11-20T00:52:05;7.50;99.90
6988;DHT22;3534;49.960;8.018;2022-11-20T00:54:32;7.50;99.90
6988;DHT22;3534;49.960;8.018;2022-11-20T00:56:59;7.50;99.90
6988;DHT22;3534;49.960;8.018;2022-11-20T00:59:26;7.40;99.90
6988;DHT22;3534;49.960;8.018;2022-11-20T01:01:52;7.40;99.90
6988;DHT22;3534;49.960;8.018;2022-11-20T01:04:20;7.40;99.90
6988;DHT22;3534;49.960;8.018;2022-11-20T01:06:47;7.40;99.90
6988;DHT22;3534;49.960;8.018;2022-11-20T01:09:14;7.40;99.90
6988;DHT22;3534;49.960;8.018;2022-11-20T01:11:43;7.40;99.90
6988;DHT22;3534;49.960;8.018;2022-11-20T01:14:13;7.50;99.90
6988;DHT22;3534;49.960;8.018;2022-11-20T01:16:41;7.50;99.90
6988;DHT22;3534;49.960;8.018;2022-11-20T01:19:10;7.40;99.90
6988;DHT22;3534;49.960;8.018;2022-11-20T01:21:41;7.40;99.90
6988;DHT22;3534;49.960;8.018;2022-11-20T01:24:10;7.50;99.90
6988;DHT22;3534;49.960;8.018;2022-11-20T01:26:39;7.40;99.90
6988;DHT22;3534;49.960;8.018;2022-11-20T01:29:08;7.40;99.90
6988;DHT22;3534;49.960;8.018;2022-11-20T01:31:36;7.40;99.90
6988;DHT22;3534;49.960;8.018;2022-11-20T01:34:05;7.40;99.90
6988;DHT22;3534;49.960;8.018;2022-11-20T01:36:33;7.40;99.90
6988;DHT22;3534;49.960;8.018;2022-11-20T01:39:04;7.40;99.90
6988;DHT22;3534;49.960;8.018;2022-11-20T01:41:33;7.40;99.90
6988;DHT22;3534;49.960;8.018;2022-11-20T01:44:19;7.40;99.90
6988;DHT22;3534;49.960;8.018;2022-11-20T01:46:52;7.40;99.90
6988;DHT22;3534;49.960;8.018;2022-11-20T01:49:25;7.50;99.90
6988;DHT22;3534;49.960;8.018;2022-11-20T01:51:55;7.40;99.90
6988;DHT22;3534;49.960;8.018;2022-11-20T01:54:28;7.50;99.90
6988;DHT22;3534;49.960;8.018;2022-11-20T01:56:57;7.50;99.90
6988;DHT22;3534;49.960;8.018;2022-11-20T01:59:26;7.40;99.90
6988;DHT22;3534;49.960;8.018;2022-11-20T02:01:54;7.50;99.90
6988;DHT22;3534;49.960;8.018;2022-11-20T02:04:22;7.40;99.90
6988;DHT22;3534;49.960;8.018;2022-11-20T02:06:53;7.40;99.90
6988;DHT22;3534;49.960;8.018;2022-11-20T02:09:23;7.40;99.90
6988;DHT22;3534;49.960;8.018;2022-11-20T02:11:51;7.40;99.90
6988;DHT22;3534;49.960;8.018;2022-11-20T02:14:18;7.40;99.90
6988;DHT22;3534;49.960;8.018;2022-11-20T02:16:45;7.50;99.90
6988;DHT22;3534;49.960;8.018;2022-11-20T02:19:17;7.50;99.90
6988;DHT22;3534;49.960;8.018;2022-11-20T02:21:50;7.40;99.90
6988;DHT22;3534;49.960;8.018;2022-11-20T02:24:22;7.50;99.90
6988;DHT22;3534;49.960;8.018;2022-11-20T02:26:51;7.40;99.90
6988;DHT22;3534;49.960;8.018;2022-11-20T02:29:23;7.30;99.90
6988;DHT22;3534;49.960;8.018;2022-11-20T02:31:51;7.20;99.90
6988;DHT22;3534;49.960;8.018;2022-11-20T02:34:19;7.10;99.90
6988;DHT22;3534;49.960;8.018;2022-11-20T02:36:46;7.10;99.90
6988;DHT22;3534;49.960;8.018;2022-11-20T02:39:15;7.10;99.90
6988;DHT22;3534;49.960;8.018;2022-11-20T02:41:44;7.20;99.90
6988;DHT22;3534;49.960;8.018;2022-11-20T02:44:11;7.20;99.90
6988;DHT22;3534;49.960;8.018;2022-11-20T02:46:38;7.20;99.90
6988;DHT22;3534;49.960;8.018;2022-11-20T02:49:05;7.30;99.90
6988;DHT22;3534;49.960;8.018;2022-11-20T02:51:32;7.20;99.90
6988;DHT22;3534;49.960;8.018;2022-11-20T02:53:59;7.20;99.90
6988;DHT22;3534;49.960;8.018;2022-11-20T02:56:25;7.20;99.90
6988;DHT22;3534;49.960;8.018;2022-11-20T02:58:53;7.20;99.90
6988;DHT22;3534;49.960;8.018;2022-11-20T03:01:21;7.20;99.90
6988;DHT22;3534;49.960;8.018;2022-11-20T03:03:47;7.30;99.90
6988;DHT22;3534;49.960;8.018;2022-11-20T03:06:14;7.30;99.90
6988;DHT22;3534;49.960;8.018;2022-11-20T03:08:41;7.40;99.90
6988;DHT22;3534;49.960;8.018;2022-11-20T03:11:08;7.30;99.90
6988;DHT22;3534;49.960;8.018;2022-11-20T03:13:35;7.40;99.90
6988;DHT22;3534;49.960;8.018;2022-11-20T03:16:08;7.40;99.90
6988;DHT22;3534;49.960;8.018;2022-11-20T03:18:36;7.40;99.90
6988;DHT22;3534;49.960;8.018;2022-11-20T03:21:02;7.40;99.90
6988;DHT22;3534;49.960;8.018;2022-11-20T03:23:30;7.40;99.90
6988;DHT22;3534;49.960;8.018;2022-11-20T03:26:11;7.30;99.90
6988;DHT22;3534;49.960;8.018;2022-11-20T03:28:38;7.20;99.90
6988;DHT22;3534;49.960;8.018;2022-11-20T03:31:10;7.20;99.90
6988;DHT22;3534;49.960;8.018;2022-11-20T03:33:37;7.20;99.90
6988;DHT22;3534;49.960;8.018;2022-11-20T03:36:06;7.20;99.90
6988;DHT22;3534;49.960;8.018;2022-11-20T03:38:33;7.30;99.90
6988;DHT22;3534;49.960;8.018;2022-11-20T03:41:01;7.20;99.90
6988;DHT22;3534;49.960;8.018;2022-11-20T03:43:28;7.20;99.90
6988;DHT22;3534;49.960;8.018;2022-11-20T03:45:55;7.30;99.90
6988;DHT22;3534;49.960;8.018;2022-11-20T03:48:23;7.30;99.90
6988;DHT22;3534;49.960;8.018;2022-11-20T03:50:50;7.40;99.90
6988;DHT22;3534;49.960;8.018;2022-11-20T03:53:17;7.30;99.90
6988;DHT22;3534;49.960;8.018;2022-11-20T03:55:44;7.40;99.90
6988;DHT22;3534;49.960;8.018;2022-11-20T03:58:11;7.40;99.90
6988;DHT22;3534;49.960;8.018;2022-11-20T04:00:38;7.40;99.90
6988;DHT22;3534;49.960;8.018;2022-11-20T04:03:05;7.30;99.90
6988;DHT22;3534;49.960;8.018;2022-11-20T04:05:34;7.40;99.90
6988;DHT22;3534;49.960;8.018;2022-11-20T04:08:01;7.40;99.90
6988;DHT22;3534;49.960;8.018;2022-11-20T04:10:27;7.40;99.90
6988;DHT22;3534;49.960;8.018;2022-11-20T04:12:54;7.30;99.90
6988;DHT22;3534;49.960;8.018;2022-11-20T04:15:21;7.30;99.90
6988;DHT22;3534;49.960;8.018;2022-11-20T04:17:47;7.20;99.90
6988;DHT22;3534;49.960;8.018;2022-11-20T04:20:14;7.20;99.90
6988;DHT22;3534;49.960;8.018;2022-11-20T04:22:42;7.10;99.90
6988;DHT22;3534;49.960;8.018;2022-11-20T04:25:09;7.20;99.90
6988;DHT22;3534;49.960;8.018;2022-11-20T04:27:35;7.10;99.90
6988;DHT22;3534;49.960;8.018;2022-11-20T04:30:03;7.20;99.90
6988;DHT22;3534;49.960;8.018;2022-11-20T04:32:30;7.20;99.90
6988;DHT22;3534;49.960;8.018;2022-11-20T04:34:56;7.20;99.90
6988;DHT22;3534;49.960;8.018;2022-11-20T04:37:23;7.30;99.90
6988;DHT22;3534;49.960;8.018;2022-11-20T04:39:51;7.30;99.90
6988;DHT22;3534;49.960;8.018;2022-11-20T04:42:18;7.30;99.90
6988;DHT22;3534;49.960;8.018;2022-11-20T04:44:57;7.30;99.90
6988;DHT22;3534;49.960;8.018;2022-11-20T04:47:24;7.40;99.90
6988;DHT22;3534;49.960;8.018;2022-11-20T04:49:50;7.40;99.90
6988;DHT22;3534;49.960;8.018;2022-11-20T04:52:17;7.40;99.90
6988;DHT22;3534;49.960;8.018;2022-11-20T04:54:44;7.40;99.90
6988;DHT22;3534;49.960;8.018;2022-11-20T04:57:14;7.40;99.90
6988;DHT22;3534;49.960;8.018;2022-11-20T04:59:41;7.40;99.90
6988;DHT22;3534;49.960;8.018;2022-11-20T05:02:08;7.40;99.90
6988;DHT22;3534;49.960;8.018;2022-11-20T05:04:34;7.40;99.90
6988;DHT22;3534;49.960;8.018;2022-11-20T05:07:01;7.40;99.90
6988;DHT22;3534;49.960;8.018;2022-11-20T05:09:28;7.50;99.90
6988;DHT22;3534;49.960;8.018;2022-11-20T05:11:54;7.50;99.90
6988;DHT22;3534;49.960;8.018;2022-11-20T05:14:22;7.50;99.90
6988;DHT22;3534;49.960;8.018;2022-11-20T05:16:49;7.40;99.90
6988;DHT22;3534;49.960;8.018;2022-11-20T05:19:15;7.30;99.90
6988;DHT22;3534;49.960;8.018;2022-11-20T05:21:42;7.30;99.90
6988;DHT22;3534;49.960;8.018;2022-11-20T05:24:09;7.30;99.90
6988;DHT22;3534;49.960;8.018;2022-11-20T05:26:36;7.20;99.90
6988;DHT22;3534;49.960;8.018;2022-11-20T05:29:02;7.30;99.90
6988;DHT22;3534;49.960;8.018;2022-11-20T05:31:31;7.20;99.90
6988;DHT22;3534;49.960;8.018;2022-11-20T05:33:59;7.20;99.90
6988;DHT22;3534;49.960;8.018;2022-11-20T05:36:26;7.20;99.90
6988;DHT22;3534;49.960;8.018;2022-11-20T05:41:33;7.30;99.90
6988;DHT22;3534;49.960;8.018;2022-11-20T05:44:00;7.30;99.90
6988;DHT22;3534;49.960;8.018;2022-11-20T05:46:27;7.40;99.90
6988;DHT22;3534;49.960;8.018;2022-11-20T05:48:55;7.40;99.90
6988;DHT22;3534;49.960;8.018;2022-11-20T05:51:23;7.40;99.90
6988;DHT22;3534;49.960;8.018;2022-11-20T05:53:50;7.40;99.90
6988;DHT22;3534;49.960;8.018;2022-11-20T05:56:18;7.40;99.90
6988;DHT22;3534;49.960;8.018;2022-11-20T05:58:46;7.40;99.90
6988;DHT22;3534;49.960;8.018;2022-11-20T06:01:14;7.50;99.90
6988;DHT22;3534;49.960;8.018;2022-11-20T06:03:42;7.50;99.90
6988;DHT22;3534;49.960;8.018;2022-11-20T06:06:12;7.50;99.90
6988;DHT22;3534;49.960;8.018;2022-11-20T06:08:39;7.50;99.90
6988;DHT22;3534;49.960;8.018;2022-11-20T06:11:07;7.50;99.90
6988;DHT22;3534;49.960;8.018;2022-11-20T06:13:34;7.50;99.90
6988;DHT22;3534;49.960;8.018;2022-11-20T06:16:02;7.50;99.90
6988;DHT22;3534;49.960;8.018;2022-11-20T06:18:29;7.50;99.90
6988;DHT22;3534;49.960;8.018;2022-11-20T06:21:00;7.50;99.90
6988;DHT22;3534;49.960;8.018;2022-11-20T06:23:29;7.50;99.90
6988;DHT22;3534;49.960;8.018;2022-11-20T06:25:57;7.50;99.90
6988;DHT22;3534;49.960;8.018;2022-11-20T06:28:23;7.50;99.90
6988;DHT22;3534;49.960;8.018;2022-11-20T06:30:50;7.50;99.90
6988;DHT22;3534;49.960;8.018;2022-11-20T06:33:17;7.50;99.90
6988;DHT22;3534;49.960;8.018;2022-11-20T06:35:43;7.50;99.90
6988;DHT22;3534;49.960;8.018;2022-11-20T06:38:10;7.50;99.90
6988;DHT22;3534;49.960;8.018;2022-11-20T06:40:41;7.50;99.90
6988;DHT22;3534;49.960;8.018;2022-11-20T06:43:07;7.50;99.90
6988;DHT22;3534;49.960;8.018;2022-11-20T06:45:34;7.40;99.90
6988;DHT22;3534;49.960;8.018;2022-11-20T06:48:01;7.40;99.90
6988;DHT22;3534;49.960;8.018;2022-11-20T06:50:28;7.40;99.90
6988;DHT22;3534;49.960;8.018;2022-11-20T06:52:54;7.40;99.90
6988;DHT22;3534;49.960;8.018;2022-11-20T06:55:21;7.30;99.90
6988;DHT22;3534;49.960;8.018;2022-11-20T06:57:50;7.40;99.90
6988;DHT22;3534;49.960;8.018;2022-11-20T07:00:17;7.40;99.90
6988;DHT22;3534;49.960;8.018;2022-11-20T07:02:44;7.40;99.90
6988;DHT22;3534;49.960;8.018;2022-11-20T07:05:10;7.30;99.90
6988;DHT22;3534;49.960;8.018;2022-11-20T07:07:37;7.10;99.90
6988;DHT22;3534;49.960;8.018;2022-11-20T07:10:05;7.10;99.90
6988;DHT22;3534;49.960;8.018;2022-11-20T07:12:31;7.10;99.90
6988;DHT22;3534;49.960;8.018;2022-11-20T07:14:59;7.20;99.90
6988;DHT22;3534;49.960;8.018;2022-11-20T07:17:26;7.20;99.90
6988;DHT22;3534;49.960;8.018;2022-11-20T07:19:53;7.20;99.90
6988;DHT22;3534;49.960;8.018;2022-11-20T07:22:19;7.20;99.90
6988;DHT22;3534;49.960;8.018;2022-11-20T07:24:47;7.20;99.90
6988;DHT22;3534;49.960;8.018;2022-11-20T07:27:13;7.30;99.90
6988;DHT22;3534;49.960;8.018;2022-11-20T07:29:40;7.30;99.90
6988;DHT22;3534;49.960;8.018;2022-11-20T07:32:08;7.30;99.90
6988;DHT22;3534;49.960;8.018;2022-11-20T07:34:35;7.30;99.90
6988;DHT22;3534;49.960;8.018;2022-11-20T07:37:02;7.30;99.90
6988;DHT22;3534;49.960;8.018;2022-11-20T07:39:28;7.30;99.90
6988;DHT22;3534;49.960;8.018;2022-11-20T07:41:55;7.30;99.90
6988;DHT22;3534;49.960;8.018;2022-11-20T07:44:22;7.20;99.90
6988;DHT22;3534;49.960;8.018;2022-11-20T07:46:48;7.20;99.90
6988;DHT22;3534;49.960;8.018;2022-11-20T07:49:16;7.20;99.90
6988;DHT22;3534;49.960;8.018;2022-11-20T07:51:43;7.30;99.90
6988;DHT22;3534;49.960;8.018;2022-11-20T07:54:10;7.30;99.90
6988;DHT22;3534;49.960;8.018;2022-11-20T07:56:37;7.30;99.90
6988;DHT22;3534;49.960;8.018;2022-11-20T07:59:03;7.40;99.90
6988;DHT22;3534;49.960;8.018;2022-11-20T08:01:30;7.50;99.90
6988;DHT22;3534;49.960;8.018;2022-11-20T08:03:57;7.50;99.90
6988;DHT22;3534;49.960;8.018;2022-11-20T08:06:25;7.40;99.90
6988;DHT22;3534;49.960;8.018;2022-11-20T08:08:51;7.20;99.90
6988;DHT22;3534;49.960;8.018;2022-11-20T08:11:18;7.20;99.90
6988;DHT22;3534;49.960;8.018;2022-11-20T08:14:02;7.20;99.90
6988;DHT22;3534;49.960;8.018;2022-11-20T08:16:38;7.20;99.90
6988;DHT22;3534;49.960;8.018;2022-11-20T08:19:05;7.20;99.90
6988;DHT22;3534;49.960;8.018;2022-11-20T08:21:33;7.30;99.90
6988;DHT22;3534;49.960;8.018;2022-11-20T08:24:00;7.40;99.90
6988;DHT22;3534;49.960;8.018;2022-11-20T08:26:27;7.40;99.90
6988;DHT22;3534;49.960;8.018;2022-11-20T08:28:54;7.40;99.90
6988;DHT22;3534;49.960;8.018;2022-11-20T08:31:21;7.50;99.90
6988;DHT22;3534;49.960;8.018;2022-11-20T08:33:48;7.50;99.90
6988;DHT22;3534;49.960;8.018;2022-11-20T08:36:15;7.50;99.90
6988;DHT22;3534;49.960;8.018;2022-11-20T08:38:47;7.60;99.90
6988;DHT22;3534;49.960;8.018;2022-11-20T08:41:13;7.60;99.90
6988;DHT22;3534;49.960;8.018;2022-11-20T08:43:54;7.60;99.90
6988;DHT22;3534;49.960;8.018;2022-11-20T08:46:23;7.60;99.90
6988;DHT22;3534;49.960;8.018;2022-11-20T08:48:49;7.60;99.90
6988;DHT22;3534;49.960;8.018;2022-11-20T08:51:16;7.60;99.90
6988;DHT22;3534;49.960;8.018;2022-11-20T08:53:45;7.60;99.90
6988;DHT22;3534;49.960;8.018;2022-11-20T08:56:11;7.60;99.90
6988;DHT22;3534;49.960;8.018;2022-11-20T08:58:38;7.60;99.90
6988;DHT22;3534;49.960;8.018;2022-11-20T09:01:05;7.60;99.90
6988;DHT22;3534;49.960;8.018;2022-11-20T09:03:32;7.50;99.90
6988;DHT22;3534;49.960;8.018;2022-11-20T09:05:59;7.40;99.90
6988;DHT22;3534;49.960;8.018;2022-11-20T09:08:27;7.40;99.90
6988;DHT22;3534;49.960;8.018;2022-11-20T09:10:56;7.40;99.90
6988;DHT22;3534;49.960;8.018;2022-11-20T09:13:23;7.40;99.90
6988;DHT22;3534;49.960;8.018;2022-11-20T09:15:53;7.30;99.90
6988;DHT22;3534;49.960;8.018;2022-11-20T09:18:20;7.20;99.90
6988;DHT22;3534;49.960;8.018;2022-11-20T09:20:47;7.10;99.90
6988;DHT22;3534;49.960;8.018;2022-11-20T09:23:13;7.10;99.90
6988;DHT22;3534;49.960;8.018;2022-11-20T09:25:40;7.20;99.90
6988;DHT22;3534;49.960;8.018;2022-11-20T09:28:08;7.20;99.90
6988;DHT22;3534;49.960;8.018;2022-11-20T09:30:35;7.30;99.90
6988;DHT22;3534;49.960;8.018;2022-11-20T09:33:04;7.30;99.90
6988;DHT22;3534;49.960;8.018;2022-11-20T09:35:31;7.40;99.90
6988;DHT22;3534;49.960;8.018;2022-11-20T09:37:57;7.40;99.90
6988;DHT22;3534;49.960;8.018;2022-11-20T09:40:26;7.40;99.90
6988;DHT22;3534;49.960;8.018;2022-11-20T09:42:58;7.40;99.90
6988;DHT22;3534;49.960;8.018;2022-11-20T09:45:38;7.20;99.90
6988;DHT22;3534;49.960;8.018;2022-11-20T09:48:30;7.20;99.90
6988;DHT22;3534;49.960;8.018;2022-11-20T09:51:08;7.20;99.90
6988;DHT22;3534;49.960;8.018;2022-11-20T09:53:50;7.00;99.90
6988;DHT22;3534;49.960;8.018;2022-11-20T09:56:20;6.90;99.90
6988;DHT22;3534;49.960;8.018;2022-11-20T09:58:49;6.90;99.90
6988;DHT22;3534;49.960;8.018;2022-11-20T10:01:20;6.90;99.90
6988;DHT22;3534;49.960;8.018;2022-11-20T10:03:54;6.90;99.90
6988;DHT22;3534;49.960;8.018;2022-11-20T10:06:28;7.00;99.90
6988;DHT22;3534;49.960;8.018;2022-11-20T10:09:01;7.10;99.90
6988;DHT22;3534;49.960;8.018;2022-11-20T10:11:41;7.10;99.90
6988;DHT22;3534;49.960;8.018;2022-11-20T10:14:18;7.10;99.90
6988;DHT22;3534;49.960;8.018;2022-11-20T10:16:56;7.10;99.90
6988;DHT22;3534;49.960;8.018;2022-11-20T10:19:39;7.00;99.90
6988;DHT22;3534;49.960;8.018;2022-11-20T10:22:20;6.90;99.90
6988;DHT22;3534;49.960;8.018;2022-11-20T10:24:55;6.70;99.90
6988;DHT22;3534;49.960;8.018;2022-11-20T10:27:38;6.70;99.90
6988;DHT22;3534;49.960;8.018;2022-11-20T10:30:09;6.80;99.90
6988;DHT22;3534;49.960;8.018;2022-11-20T10:32:40;6.80;99.90
6988;DHT22;3534;49.960;8.018;2022-11-20T10:35:17;6.80;99.90
6988;DHT22;3534;49.960;8.018;2022-11-20T10:37:47;6.80;99.90
6988;DHT22;3534;49.960;8.018;2022-11-20T10:40:21;7.00;99.90
6988;DHT22;3534;49.960;8.018;2022-11-20T10:42:51;7.00;99.90
6988;DHT22;3534;49.960;8.018;2022-11-20T10:45:31;7.00;99.90
6988;DHT22;3534;49.960;8.018;2022-11-20T10:48:14;7.00;99.90
6988;DHT22;3534;49.960;8.018;2022-11-20T10:50:53;7.10;99.90
6988;DHT22;3534;49.960;8.018;2022-11-20T10:53:33;7.20;99.90
6988;DHT22;3534;49.960;8.018;2022-11-20T10:56:07;7.30;99.90
6988;DHT22;3534;49.960;8.018;2022-11-20T10:58:47;7.30;99.90
6988;DHT22;3534;49.960;8.018;2022-11-20T11:01:18;7.30;99.90
6988;DHT22;3534;49.960;8.018;2022-11-20T11:03:49;7.40;99.90
6988;DHT22;3534;49.960;8.018;2022-11-20T11:06:22;7.30;99.90
6988;DHT22;3534;49.960;8.018;2022-11-20T11:08:53;7.30;99.90
6988;DHT22;3534;49.960;8.018;2022-11-20T11:11:23;7.40;99.90
6988;DHT22;3534;49.960;8.018;2022-11-20T11:13:51;7.40;99.90
6988;DHT22;3534;49.960;8.018;2022-11-20T11:16:23;7.30;99.90
6988;DHT22;3534;49.960;8.018;2022-11-20T11:19:03;7.30;99.90
6988;DHT22;3534;49.960;8.018;2022-11-20T11:21:30;7.30;99.90
6988;DHT22;3534;49.960;8.018;2022-11-20T11:23:59;7.40;99.90
6988;DHT22;3534;49.960;8.018;2022-11-20T11:26:26;7.40;99.90
6988;DHT22;3534;49.960;8.018;2022-11-20T11:28:55;7.50;99.90
6988;DHT22;3534;49.960;8.018;2022-11-20T11:31:23;7.40;99.90
6988;DHT22;3534;49.960;8.018;2022-11-20T11:33:50;7.30;99.90
6988;DHT22;3534;49.960;8.018;2022-11-20T11:36:21;7.20;99.90
6988;DHT22;3534;49.960;8.018;2022-11-20T11:38:52;7.20;99.90
6988;DHT22;3534;49.960;8.018;2022-11-20T11:41:22;7.30;99.90
6988;DHT22;3534;49.960;8.018;2022-11-20T11:43:51;7.50;99.90
6988;DHT22;3534;49.960;8.018;2022-11-20T11:46:36;7.70;99.90
6988;DHT22;3534;49.960;8.018;2022-11-20T11:49:15;7.70;99.90
6988;DHT22;3534;49.960;8.018;2022-11-20T11:51:58;7.80;99.90
6988;DHT22;3534;49.960;8.018;2022-11-20T11:54:31;7.90;99.90
6988;DHT22;3534;49.960;8.018;2022-11-20T11:57:03;8.00;99.90
6988;DHT22;3534;49.960;8.018;2022-11-20T11:59:41;8.10;99.90
6988;DHT22;3534;49.960;8.018;2022-11-20T12:02:20;8.20;99.90
6988;DHT22;3534;49.960;8.018;2022-11-20T12:04:57;8.20;99.90
6988;DHT22;3534;49.960;8.018;2022-11-20T12:07:36;8.30;99.90
6988;DHT22;3534;49.960;8.018;2022-11-20T12:10:08;8.20;99.90
6988;DHT22;3534;49.960;8.018;2022-11-20T12:12:44;8.10;99.90
6988;DHT22;3534;49.960;8.018;2022-11-20T12:15:13;8.10;99.90
6988;DHT22;3534;49.960;8.018;2022-11-20T12:17:42;8.20;99.90
6988;DHT22;3534;49.960;8.018;2022-11-20T12:20:13;8.30;99.90
6988;DHT22;3534;49.960;8.018;2022-11-20T12:22:48;8.30;99.90
6988;DHT22;3534;49.960;8.018;2022-11-20T12:25:20;8.40;99.90
6988;DHT22;3534;49.960;8.018;2022-11-20T12:31:09;8.50;99.90
6988;DHT22;3534;49.960;8.018;2022-11-20T12:33:59;8.60;99.90
6988;DHT22;3534;49.960;8.018;2022-11-20T12:36:37;8.50;99.90
6988;DHT22;3534;49.960;8.018;2022-11-20T12:39:26;8.50;99.90
6988;DHT22;3534;49.960;8.018;2022-11-20T12:42:18;8.50;99.90
6988;DHT22;3534;49.960;8.018;2022-11-20T12:45:27;8.60;99.90
6988;DHT22;3534;49.960;8.018;2022-11-20T12:48:09;8.70;99.90
6988;DHT22;3534;49.960;8.018;2022-11-20T12:50:46;8.80;99.90
6988;DHT22;3534;49.960;8.018;2022-11-20T12:53:25;8.80;99.90
6988;DHT22;3534;49.960;8.018;2022-11-20T12:55:59;8.80;99.90
6988;DHT22;3534;49.960;8.018;2022-11-20T12:58:34;8.70;99.90
6988;DHT22;3534;49.960;8.018;2022-11-20T13:01:11;8.50;99.90
6988;DHT22;3534;49.960;8.018;2022-11-20T13:04:12;8.40;99.90
6988;DHT22;3534;49.960;8.018;2022-11-20T13:06:44;8.40;99.90
6988;DHT22;3534;49.960;8.018;2022-11-20T13:09:13;8.40;99.90
6988;DHT22;3534;49.960;8.018;2022-11-20T13:11:47;8.50;99.90
6988;DHT22;3534;49.960;8.018;2022-11-20T13:14:26;8.60;99.90
6988;DHT22;3534;49.960;8.018;2022-11-20T13:16:59;8.60;99.90
6988;DHT22;3534;49.960;8.018;2022-11-20T13:19:28;8.70;99.90
6988;DHT22;3534;49.960;8.018;2022-11-20T13:21:55;8.80;99.90
6988;DHT22;3534;49.960;8.018;2022-11-20T13:24:26;8.90;99.90
6988;DHT22;3534;49.960;8.018;2022-11-20T13:27:20;9.00;99.90
6988;DHT22;3534;49.960;8.018;2022-11-20T13:30:01;9.10;99.90
6988;DHT22;3534;49.960;8.018;2022-11-20T13:32:28;9.10;99.90
6988;DHT22;3534;49.960;8.018;2022-11-20T13:34:59;9.10;99.90
6988;DHT22;3534;49.960;8.018;2022-11-20T13:37:32;9.20;99.90
6988;DHT22;3534;49.960;8.018;2022-11-20T13:40:19;9.30;99.90
6988;DHT22;3534;49.960;8.018;2022-11-20T13:43:01;9.30;99.90
6988;DHT22;3534;49.960;8.018;2022-11-20T13:45:30;9.50;99.90
6988;DHT22;3534;49.960;8.018;2022-11-20T13:47:59;9.60;99.90
6988;DHT22;3534;49.960;8.018;2022-11-20T13:50:53;9.60;99.90
6988;DHT22;3534;49.960;8.018;2022-11-20T13:53:48;9.80;99.90
6988;DHT22;3534;49.960;8.018;2022-11-20T13:56:23;9.80;99.90
6988;DHT22;3534;49.960;8.018;2022-11-20T13:58:59;9.80;99.90
6988;DHT22;3534;49.960;8.018;2022-11-20T14:01:30;9.80;99.90
6988;DHT22;3534;49.960;8.018;2022-11-20T14:03:58;9.80;99.90
6988;DHT22;3534;49.960;8.018;2022-11-20T14:06:27;9.80;99.90
6988;DHT22;3534;49.960;8.018;2022-11-20T14:08:56;9.80;99.90
6988;DHT22;3534;49.960;8.018;2022-11-20T14:11:24;9.80;99.90
6988;DHT22;3534;49.960;8.018;2022-11-20T14:13:55;9.70;99.90
6988;DHT22;3534;49.960;8.018;2022-11-20T14:16:23;9.70;99.90
6988;DHT22;3534;49.960;8.018;2022-11-20T14:18:50;9.70;99.90
6988;DHT22;3534;49.960;8.018;2022-11-20T14:21:24;9.70;99.90
6988;DHT22;3534;49.960;8.018;2022-11-20T14:23:53;9.70;99.90
6988;DHT22;3534;49.960;8.018;2022-11-20T14:26:20;9.80;99.90
6988;DHT22;3534;49.960;8.018;2022-11-20T14:28:49;9.70;99.90
6988;DHT22;3534;49.960;8.018;2022-11-20T14:31:22;9.80;99.90
6988;DHT22;3534;49.960;8.018;2022-11-20T14:33:50;9.80;99.90
6988;DHT22;3534;49.960;8.018;2022-11-20T14:36:19;9.80;99.90
6988;DHT22;3534;49.960;8.018;2022-11-20T14:38:46;9.80;99.90
6988;DHT22;3534;49.960;8.018;2022-11-20T14:41:17;9.80;99.90
6988;DHT22;3534;49.960;8.018;2022-11-20T14:43:46;9.70;99.90
6988;DHT22;3534;49.960;8.018;2022-11-20T14:46:14;9.60;99.90
6988;DHT22;3534;49.960;8.018;2022-11-20T14:48:45;9.70;99.90
6988;DHT22;3534;49.960;8.018;2022-11-20T14:51:24;9.60;99.90
6988;DHT22;3534;49.960;8.018;2022-11-20T14:53:52;9.60;99.90
6988;DHT22;3534;49.960;8.018;2022-11-20T14:56:21;9.60;99.90
6988;DHT22;3534;49.960;8.018;2022-11-20T14:58:56;9.60;99.90
6988;DHT22;3534;49.960;8.018;2022-11-20T15:01:26;9.60;99.90
6988;DHT22;3534;49.960;8.018;2022-11-20T15:04:00;9.50;99.90
6988;DHT22;3534;49.960;8.018;2022-11-20T15:06:28;9.50;99.90
6988;DHT22;3534;49.960;8.018;2022-11-20T15:08:57;9.60;99.90
6988;DHT22;3534;49.960;8.018;2022-11-20T15:11:28;9.60;99.90
6988;DHT22;3534;49.960;8.018;2022-11-20T15:13:56;9.50;99.90
6988;DHT22;3534;49.960;8.018;2022-11-20T15:16:23;9.50;99.90
6988;DHT22;3534;49.960;8.018;2022-11-20T15:18:51;9.50;99.90
6988;DHT22;3534;49.960;8.018;2022-11-20T15:21:20;9.50;99.90
6988;DHT22;3534;49.960;8.018;2022-11-20T15:23:47;9.50;99.90
6988;DHT22;3534;49.960;8.018;2022-11-20T15:26:20;9.50;99.90
6988;DHT22;3534;49.960;8.018;2022-11-20T15:28:48;9.40;99.90
6988;DHT22;3534;49.960;8.018;2022-11-20T15:31:18;9.50;99.90
6988;DHT22;3534;49.960;8.018;2022-11-20T15:33:45;9.40;99.90
6988;DHT22;3534;49.960;8.018;2022-11-20T15:36:11;9.40;99.90
6988;DHT22;3534;49.960;8.018;2022-11-20T15:38:40;9.40;99.90
6988;DHT22;3534;49.960;8.018;2022-11-20T15:41:07;9.40;99.90
6988;DHT22;3534;49.960;8.018;2022-11-20T15:43:33;9.30;99.90
6988;DHT22;3534;49.960;8.018;2022-11-20T15:46:03;9.40;99.90
6988;DHT22;3534;49.960;8.018;2022-11-20T15:48:34;9.30;99.90
6988;DHT22;3534;49.960;8.018;2022-11-20T15:51:06;9.30;99.90
6988;DHT22;3534;49.960;8.018;2022-11-20T15:53:40;9.30;99.90
6988;DHT22;3534;49.960;8.018;2022-11-20T15:56:11;9.30;99.90
6988;DHT22;3534;49.960;8.018;2022-11-20T15:58:39;9.30;99.90
6988;DHT22;3534;49.960;8.018;2022-11-20T16:01:09;9.30;99.90
6988;DHT22;3534;49.960;8.018;2022-11-20T16:03:36;9.30;99.90
6988;DHT22;3534;49.960;8.018;2022-11-20T16:06:03;9.30;99.90
6988;DHT22;3534;49.960;8.018;2022-11-20T16:08:30;9.30;99.90
6988;DHT22;3534;49.960;8.018;2022-11-20T16:10:58;9.30;99.90
6988;DHT22;3534;49.960;8.018;2022-11-20T16:13:24;9.30;99.90
6988;DHT22;3534;49.960;8.018;2022-11-20T16:16:23;9.40;99.90
6988;DHT22;3534;49.960;8.018;2022-11-20T16:18:51;9.40;99.90
6988;DHT22;3534;49.960;8.018;2022-11-20T16:21:18;9.40;99.90
6988;DHT22;3534;49.960;8.018;2022-11-20T16:23:44;9.30;99.90
6988;DHT22;3534;49.960;8.018;2022-11-20T16:26:14;9.30;99.90
6988;DHT22;3534;49.960;8.018;2022-11-20T16:28:41;9.30;99.90
6988;DHT22;3534;49.960;8.018;2022-11-20T16:31:10;9.30;99.90
6988;DHT22;3534;49.960;8.018;2022-11-20T16:33:37;9.30;99.90
6988;DHT22;3534;49.960;8.018;2022-11-20T16:36:08;9.30;99.90
6988;DHT22;3534;49.960;8.018;2022-11-20T16:38:35;9.30;99.90
6988;DHT22;3534;49.960;8.018;2022-11-20T16:41:02;9.30;99.90